Other Surface Observations
Issued by NWS Great Falls, MT

Home | Current Version | Previous Version | Text Only | Print | Product List | Glossary On
Versions: 1 2 3 4 5 6 7 8 9 10 11 12 13 14 15 16 17 18 19 20 21 22 23 24 25 26 27 28 29 30 31 32 33 34 35 36 37 38 39 40 41 42 43 44 45 46 47 48 49 50
558
SXUS55 KTFX 020559
OSOTFX
AREA AWOS OBSERVATIONS
NATIONAL WEATHER SERVICE GREAT FALLS MT
1159 PM MDT SUN MAY 01 2016

METAR KPWD 020600Z AUTO 28004KT 10SM 11/01 A3010 RMK PLENTYWOOD
METAR KPO1 020600Z AUTO 23003KT 10SM 09/02 A3015 RMK POPLAR
METAR K1S3 020600Z AUTO 00000KT 10SM 07/01 A3021 RMK FORSYTH
METAR KS71 020600Z AUTO 23003KT 10SM 08/04 A3017 RMK CHINOOK
METAR K38S 020600Z AUTO 24003KT 10SM 06/01 A3021 RMK DEER LODGE
METAR K3U3 020600Z AUTO 22007KT 10SM 04/00 A3021 RMK ANACONDA
METAR K6S5 020600Z AUTO 00000KT 10SM 08/03 A3015 RMK HAMILTON
METAR KS59 020600Z AUTO 00000KT 10SM 08/03 A3013 RMK LIBBY
METAR K88M 020600Z AUTO 00000KT 10SM 08/03 A3014 RMK EUREKA



USA.gov is the U.S. government's official web portal to all federal, state and local government web resources and services.